createdAt,value
2022-11-25T00:01:12.308Z,11.73
2022-11-25T00:03:40.235Z,10.30
2022-11-25T00:06:16.450Z,11.85
2022-11-25T00:08:45.018Z,9.05
2022-11-25T00:11:13.337Z,9.18
2022-11-25T00:13:40.756Z,9.13
2022-11-25T00:16:13.055Z,8.27
2022-11-25T00:21:12.068Z,8.05
2022-11-25T00:23:39.511Z,7.97
2022-11-25T00:26:14.195Z,9.23
2022-11-25T00:28:43.489Z,9.55
2022-11-25T00:31:30.589Z,5.82
2022-11-25T00:33:57.928Z,10.05
2022-11-25T00:36:31.949Z,11.95
2022-11-25T00:39:06.028Z,14.23
2022-11-25T00:41:51.870Z,8.13
2022-11-25T00:44:40.375Z,6.47
2022-11-25T00:47:14.978Z,7.13
2022-11-25T00:49:44.123Z,6.32
2022-11-25T00:52:14.668Z,7.47
2022-11-25T00:54:41.598Z,6.85
2022-11-25T00:57:08.478Z,7.28
2022-11-25T00:59:35.254Z,8.38
2022-11-25T01:02:02.168Z,9.13
2022-11-25T01:04:29.266Z,7.53
2022-11-25T01:06:56.883Z,7.97
2022-11-25T01:09:23.809Z,7.25
2022-11-25T01:11:51.617Z,7.10
2022-11-25T01:14:19.444Z,6.57
2022-11-25T01:16:46.348Z,7.97
2022-11-25T01:19:13.416Z,8.48
2022-11-25T01:21:40.829Z,6.32
2022-11-25T01:24:08.532Z,7.80
2022-11-25T01:26:36.283Z,8.05
2022-11-25T01:29:06.005Z,7.63
2022-11-25T01:31:35.674Z,7.55
2022-11-25T01:34:06.249Z,5.88
2022-11-25T01:36:34.281Z,6.32
2022-11-25T01:39:01.600Z,5.95
2022-11-25T01:41:31.448Z,8.38
2022-11-25T01:44:16.778Z,6.07
2022-11-25T01:46:56.227Z,7.65
2022-11-25T01:49:34.738Z,7.10
2022-11-25T01:52:16.946Z,11.98
2022-11-25T01:54:58.864Z,7.68
2022-11-25T01:57:33.312Z,10.10
2022-11-25T02:00:04.555Z,7.82
2022-11-25T02:02:32.119Z,8.90
2022-11-25T02:05:01.516Z,10.98
2022-11-25T02:07:33.501Z,9.20
2022-11-25T02:10:02.745Z,17.15
2022-11-25T02:12:30.693Z,19.58
2022-11-25T02:14:59.541Z,17.65
2022-11-25T02:17:26.433Z,17.40
2022-11-25T02:20:04.687Z,15.30
2022-11-25T02:22:46.329Z,13.05
2022-11-25T02:25:20.603Z,12.52
2022-11-25T02:27:52.874Z,14.10
2022-11-25T02:32:47.979Z,17.02
2022-11-25T02:35:30.078Z,14.35
2022-11-25T02:38:03.706Z,13.68
2022-11-25T02:40:31.127Z,14.98
2022-11-25T02:43:00.835Z,17.17
2022-11-25T02:45:39.529Z,14.98
2022-11-25T02:48:06.326Z,15.60
2022-11-25T02:50:33.192Z,19.42
2022-11-25T02:52:59.976Z,19.80
2022-11-25T02:55:26.756Z,19.88
2022-11-25T02:57:53.587Z,15.73
2022-11-25T03:00:20.628Z,19.42
2022-11-25T03:02:48.414Z,18.80
2022-11-25T03:05:15.414Z,16.15
2022-11-25T03:07:42.284Z,16.80
2022-11-25T03:10:09.483Z,16.55
2022-11-25T03:12:36.298Z,17.83
2022-11-25T03:15:03.399Z,16.83
2022-11-25T03:17:30.199Z,15.70
2022-11-25T03:19:57.044Z,18.92
2022-11-25T03:22:23.984Z,19.85
2022-11-25T03:24:50.821Z,20.23
2022-11-25T03:27:18.078Z,18.55
2022-11-25T03:29:44.927Z,18.75
2022-11-25T03:32:11.845Z,19.02
2022-11-25T03:34:38.869Z,17.98
2022-11-25T03:37:05.890Z,18.83
2022-11-25T03:39:32.897Z,19.65
2022-11-25T03:41:59.703Z,22.02
2022-11-25T03:44:26.541Z,21.55
2022-11-25T03:46:53.380Z,21.27
2022-11-25T03:49:21.848Z,20.83
2022-11-25T03:51:49.432Z,24.67
2022-11-25T03:54:16.258Z,20.27
2022-11-25T03:56:43.148Z,22.13
2022-11-25T03:59:10.077Z,21.50
2022-11-25T04:01:41.493Z,21.65
2022-11-25T04:04:10.900Z,25.60
2022-11-25T04:06:39.378Z,20.55
2022-11-25T04:09:11.967Z,23.80
2022-11-25T04:11:57.302Z,20.98
2022-11-25T04:14:24.074Z,24.98
2022-11-25T04:16:51.075Z,24.65
2022-11-25T04:19:17.901Z,30.75
2022-11-25T04:21:49.319Z,23.15
2022-11-25T04:24:19.196Z,23.15
2022-11-25T04:26:46.051Z,25.58
2022-11-25T04:29:12.889Z,26.75
2022-11-25T04:31:39.659Z,25.05
2022-11-25T04:34:06.443Z,28.10
2022-11-25T04:36:33.285Z,26.55
2022-11-25T04:39:00.093Z,25.45
2022-11-25T04:41:26.868Z,25.50
2022-11-25T04:43:53.608Z,23.45
2022-11-25T04:46:23.659Z,25.10
2022-11-25T04:48:50.573Z,26.42
2022-11-25T04:51:17.428Z,24.73
2022-11-25T04:53:45.631Z,26.23
2022-11-25T04:56:18.675Z,25.55
2022-11-25T04:59:04.184Z,22.92
2022-11-25T05:01:31.153Z,21.85
2022-11-25T05:03:58.083Z,21.38
2022-11-25T05:06:25.082Z,21.52
2022-11-25T05:08:51.926Z,21.05
2022-11-25T05:11:18.871Z,22.10
2022-11-25T05:13:45.709Z,23.73
2022-11-25T05:16:12.716Z,25.08
2022-11-25T05:18:41.213Z,21.10
2022-11-25T05:21:08.042Z,24.08
2022-11-25T05:23:34.956Z,20.83
2022-11-25T05:26:04.336Z,21.02
2022-11-25T05:28:31.712Z,21.13
2022-11-25T05:30:58.603Z,21.38
2022-11-25T05:33:25.544Z,23.25
2022-11-25T05:35:57.709Z,21.30
2022-11-25T05:38:24.735Z,19.75
2022-11-25T05:40:51.656Z,21.23
2022-11-25T05:43:18.800Z,24.88
2022-11-25T05:45:46.045Z,25.38
2022-11-25T05:48:12.903Z,22.23
2022-11-25T05:50:39.736Z,20.63
2022-11-25T05:53:06.754Z,18.83
2022-11-25T05:55:34.183Z,21.08
2022-11-25T05:58:01.211Z,19.55
2022-11-25T06:00:28.057Z,24.33
2022-11-25T06:02:55.145Z,18.83
2022-11-25T06:05:22.298Z,17.42
2022-11-25T06:07:49.387Z,19.33
2022-11-25T06:10:17.912Z,17.10
2022-11-25T06:12:44.860Z,18.50
2022-11-25T06:15:12.416Z,21.35
2022-11-25T06:17:39.348Z,21.48
2022-11-25T06:20:09.056Z,35.80
2022-11-25T06:22:36.017Z,19.63
2022-11-25T06:25:04.821Z,18.67
2022-11-25T06:27:57.007Z,21.75
2022-11-25T06:30:19.937Z,21.77
2022-11-25T06:32:46.987Z,24.70
2022-11-25T06:35:14.421Z,19.00
2022-11-25T06:37:41.592Z,21.00
2022-11-25T06:40:09.222Z,20.10
2022-11-25T06:42:38.667Z,22.65
2022-11-25T06:45:06.780Z,17.45
2022-11-25T06:47:33.570Z,19.38
2022-11-25T06:50:00.362Z,18.23
2022-11-25T06:52:30.231Z,14.23
2022-11-25T06:54:57.053Z,16.92
2022-11-25T06:57:24.068Z,11.50
2022-11-25T06:59:51.629Z,14.70
2022-11-25T07:02:18.816Z,13.35
2022-11-25T07:04:53.391Z,11.18
2022-11-25T07:07:20.552Z,15.77
2022-11-25T07:09:47.792Z,14.93
2022-11-25T07:12:14.707Z,13.40
2022-11-25T07:14:41.790Z,11.43
2022-11-25T07:17:11.924Z,11.70
2022-11-25T07:19:39.368Z,14.02
2022-11-25T07:22:06.116Z,12.48
2022-11-25T07:24:34.662Z,15.63
2022-11-25T07:27:01.911Z,16.85
2022-11-25T07:29:51.945Z,16.38
2022-11-25T07:32:17.511Z,15.20
2022-11-25T07:34:44.462Z,12.50
2022-11-25T07:37:11.354Z,14.63
2022-11-25T07:39:38.464Z,13.68
2022-11-25T07:42:05.634Z,11.40
2022-11-25T07:44:32.488Z,14.57
2022-11-25T07:46:59.291Z,17.17
2022-11-25T07:49:26.543Z,14.48
2022-11-25T07:51:56.749Z,14.48
2022-11-25T07:54:25.000Z,12.82
2022-11-25T07:56:52.140Z,14.90
2022-11-25T07:59:23.615Z,14.18
2022-11-25T08:01:55.707Z,17.38
2022-11-25T08:04:24.016Z,16.20
2022-11-25T08:06:52.475Z,16.73
2022-11-25T08:09:25.299Z,14.45
2022-11-25T08:11:53.909Z,17.30
2022-11-25T08:14:21.181Z,13.65
2022-11-25T08:16:49.079Z,14.85
2022-11-25T08:19:17.550Z,17.27
2022-11-25T08:21:45.056Z,19.42
2022-11-25T08:24:20.696Z,20.05
2022-11-25T08:26:49.144Z,18.98
2022-11-25T08:29:18.879Z,18.77
2022-11-25T08:31:45.953Z,18.80
2022-11-25T08:34:22.528Z,18.77
2022-11-25T08:36:49.450Z,16.30
2022-11-25T08:39:44.231Z,17.77
2022-11-25T08:42:06.125Z,22.17
2022-11-25T08:44:33.059Z,22.67
2022-11-25T08:46:59.937Z,18.23
2022-11-25T08:49:29.302Z,17.75
2022-11-25T08:52:09.083Z,17.33
2022-11-25T08:54:35.943Z,22.92
2022-11-25T08:57:02.846Z,25.75
2022-11-25T08:59:29.646Z,25.33
2022-11-25T09:01:56.668Z,30.20
2022-11-25T09:04:23.435Z,22.80
2022-11-25T09:06:50.435Z,26.63
2022-11-25T09:09:19.679Z,27.02
2022-11-25T09:11:46.530Z,28.77
2022-11-25T09:14:13.932Z,29.40
2022-11-25T09:16:41.346Z,29.52
2022-11-25T09:19:08.263Z,29.60
2022-11-25T09:21:35.092Z,29.15
2022-11-25T09:24:02.307Z,34.83
2022-11-25T09:26:31.545Z,28.17
2022-11-25T09:29:01.469Z,33.60
2022-11-25T09:31:28.469Z,35.67
2022-11-25T09:33:56.591Z,33.45
2022-11-25T09:36:24.370Z,33.38
2022-11-25T09:38:51.801Z,28.13
2022-11-25T09:41:52.848Z,28.88
2022-11-25T09:44:56.416Z,29.15
2022-11-25T09:47:48.324Z,30.90
2022-11-25T09:52:52.054Z,28.23
2022-11-25T09:55:23.986Z,32.03
2022-11-25T09:58:19.969Z,27.73
2022-11-25T10:00:50.109Z,31.27
2022-11-25T10:03:16.916Z,30.25
2022-11-25T10:05:52.969Z,26.35
2022-11-25T10:08:25.268Z,29.73
2022-11-25T10:13:35.165Z,30.98
2022-11-25T10:16:05.665Z,29.52
2022-11-25T10:18:41.382Z,24.77
2022-11-25T10:21:10.404Z,27.55
2022-11-25T10:23:42.274Z,32.70
2022-11-25T10:26:14.928Z,27.63
2022-11-25T10:28:55.961Z,30.00
2022-11-25T10:31:35.162Z,28.95
2022-11-25T10:34:16.455Z,30.13
2022-11-25T10:36:44.203Z,30.98
2022-11-25T10:39:24.353Z,30.83
2022-11-25T10:41:58.953Z,27.85
2022-11-25T10:44:32.063Z,30.45
2022-11-25T10:47:14.083Z,26.77
2022-11-25T10:53:02.568Z,22.50
2022-11-25T10:55:32.311Z,23.10
2022-11-25T10:58:04.229Z,26.27
2022-11-25T11:00:37.738Z,25.33
2022-11-25T11:03:25.864Z,24.60
2022-11-25T11:05:55.492Z,21.05
2022-11-25T11:08:29.725Z,18.63
2022-11-25T11:11:20.961Z,22.08
2022-11-25T11:13:49.173Z,51.35
2022-11-25T11:16:52.340Z,20.83
2022-11-25T11:19:28.117Z,18.20
2022-11-25T11:21:58.166Z,20.52
2022-11-25T11:24:38.478Z,27.15
2022-11-25T11:27:07.900Z,26.83
2022-11-25T11:29:35.223Z,26.15
2022-11-25T11:32:05.884Z,23.83
2022-11-25T11:35:04.227Z,25.15
2022-11-25T11:37:53.235Z,23.35
2022-11-25T11:40:37.390Z,22.73
2022-11-25T11:43:24.757Z,18.48
2022-11-25T11:46:10.433Z,20.73
2022-11-25T11:48:43.252Z,19.83
2022-11-25T11:51:46.442Z,24.75
2022-11-25T11:54:46.858Z,19.50
2022-11-25T12:00:20.587Z,21.60
2022-11-25T12:03:05.708Z,17.15
2022-11-25T12:05:39.826Z,19.42
2022-11-25T12:08:21.163Z,16.80
2022-11-25T12:10:54.320Z,16.13
2022-11-25T12:13:42.479Z,21.42
2022-11-25T12:16:30.455Z,22.13
2022-11-25T12:19:03.175Z,21.75
2022-11-25T12:21:55.018Z,22.05
2022-11-25T12:24:53.921Z,29.30
2022-11-25T12:27:36.362Z,22.20
2022-11-25T12:30:10.335Z,18.65
2022-11-25T12:32:50.788Z,19.63
2022-11-25T12:35:17.749Z,24.83
2022-11-25T12:38:10.750Z,22.65
2022-11-25T12:41:04.957Z,19.20
2022-11-25T12:43:50.788Z,20.90
2022-11-25T12:46:45.422Z,22.23
2022-11-25T12:49:40.966Z,21.92
2022-11-25T12:52:26.683Z,21.50
2022-11-25T12:55:05.922Z,20.90
2022-11-25T12:57:51.865Z,20.42
2022-11-25T13:00:47.190Z,23.85
2022-11-25T13:03:41.728Z,22.17
2022-11-25T13:06:39.662Z,24.33
2022-11-25T13:09:12.451Z,21.20
2022-11-25T13:12:32.072Z,23.05
2022-11-25T13:15:19.589Z,22.60
2022-11-25T13:17:55.261Z,23.80
2022-11-25T13:20:35.703Z,28.20
2022-11-25T13:23:05.802Z,25.98
2022-11-25T13:25:33.488Z,25.50
2022-11-25T13:28:06.057Z,20.13
2022-11-25T13:30:33.087Z,24.00
2022-11-25T13:33:12.024Z,23.85
2022-11-25T13:35:54.369Z,22.67
2022-11-25T13:41:23.794Z,24.05
2022-11-25T13:43:53.747Z,20.43
2022-11-25T13:46:46.151Z,22.73
2022-11-25T13:49:27.098Z,18.13
2022-11-25T13:51:58.480Z,21.40
2022-11-25T13:54:58.150Z,25.45
2022-11-25T13:57:28.581Z,24.17
2022-11-25T14:00:01.891Z,17.05
2022-11-25T14:02:28.878Z,18.17
2022-11-25T14:05:33.512Z,19.17
2022-11-25T14:08:20.402Z,16.20
2022-11-25T14:11:32.728Z,14.57
2022-11-25T14:14:19.328Z,16.85
2022-11-25T14:17:04.883Z,15.95
2022-11-25T14:19:54.913Z,13.20
2022-11-25T14:22:38.948Z,12.95
2022-11-25T14:25:30.509Z,12.55
2022-11-25T14:28:08.769Z,44.10
2022-11-25T14:30:53.165Z,16.27
2022-11-25T14:33:31.664Z,21.92
2022-11-25T14:36:22.045Z,15.73
2022-11-25T14:38:59.974Z,18.73
2022-11-25T14:42:14.010Z,17.77
2022-11-25T14:44:53.502Z,14.95
2022-11-25T14:47:27.699Z,17.33
2022-11-25T14:52:48.038Z,24.80
2022-11-25T14:55:29.415Z,16.63
2022-11-25T14:58:01.760Z,17.17
2022-11-25T15:00:29.736Z,23.17
2022-11-25T15:03:02.482Z,35.25
2022-11-25T15:05:34.584Z,30.30
2022-11-25T15:08:06.857Z,26.85
2022-11-25T15:13:38.938Z,24.65
2022-11-25T15:16:11.792Z,30.73
2022-11-25T15:18:43.541Z,34.03
2022-11-25T15:21:15.435Z,28.48
2022-11-25T15:23:42.445Z,33.33
2022-11-25T15:26:22.694Z,33.50
2022-11-25T15:29:10.172Z,23.45
2022-11-25T15:31:41.935Z,25.10
2022-11-25T15:34:14.198Z,24.77
2022-11-25T15:39:20.241Z,25.75
2022-11-25T15:42:21.809Z,28.38
2022-11-25T15:45:06.916Z,36.85
2022-11-25T15:47:35.774Z,29.98
2022-11-25T15:50:06.311Z,29.77
2022-11-25T15:52:40.219Z,33.03
2022-11-25T15:55:17.181Z,25.10
2022-11-25T15:57:49.059Z,25.70
2022-11-25T16:00:23.270Z,26.60
2022-11-25T16:02:57.314Z,25.25
2022-11-25T16:05:31.911Z,28.17
2022-11-25T16:08:02.310Z,33.03
2022-11-25T16:10:56.475Z,25.10
2022-11-25T16:13:24.178Z,23.98
2022-11-25T16:15:52.532Z,22.02
2022-11-25T16:18:39.925Z,22.40
2022-11-25T16:21:10.695Z,24.08
2022-11-25T16:23:41.914Z,24.80
2022-11-25T16:26:13.763Z,24.52
2022-11-25T16:28:54.426Z,26.77
2022-11-25T16:31:21.657Z,28.33
2022-11-25T16:33:53.119Z,33.53
2022-11-25T16:36:20.030Z,30.58
2022-11-25T16:38:53.480Z,29.95
2022-11-25T16:41:25.147Z,30.85
2022-11-25T16:43:52.813Z,28.80
2022-11-25T16:46:22.902Z,30.42
2022-11-25T16:48:52.074Z,29.30
2022-11-25T16:51:26.501Z,32.28
2022-11-25T16:53:57.974Z,35.38
2022-11-25T16:56:59.197Z,58.17
2022-11-25T16:59:41.586Z,33.28
2022-11-25T17:05:32.664Z,34.83
2022-11-25T17:07:59.697Z,33.67
2022-11-25T17:10:42.420Z,32.58
2022-11-25T17:13:18.291Z,29.73
2022-11-25T17:15:46.229Z,33.53
2022-11-25T17:18:18.772Z,36.67
2022-11-25T17:20:46.531Z,31.98
2022-11-25T17:23:16.158Z,36.80
2022-11-25T17:25:50.266Z,34.28
2022-11-25T17:28:20.050Z,38.28
2022-11-25T17:30:49.189Z,34.35
2022-11-25T17:33:21.699Z,33.70
2022-11-25T17:36:06.512Z,44.50
2022-11-25T17:38:38.485Z,42.83
2022-11-25T17:41:10.809Z,37.38
2022-11-25T17:46:13.403Z,40.03
2022-11-25T17:48:54.824Z,43.20
2022-11-25T17:51:33.841Z,36.53
2022-11-25T17:54:00.829Z,35.92
2022-11-25T17:56:32.628Z,42.95
2022-11-25T17:59:28.180Z,33.47
2022-11-25T18:04:58.594Z,43.05
2022-11-25T18:10:17.372Z,38.47
2022-11-25T18:12:58.770Z,39.28
2022-11-25T18:15:35.219Z,35.40
2022-11-25T18:26:33.098Z,39.33
2022-11-25T18:29:05.594Z,39.22
2022-11-25T18:31:33.074Z,34.03
2022-11-25T18:36:41.125Z,36.50
2022-11-25T18:39:08.050Z,33.10
2022-11-25T18:41:35.108Z,39.17
2022-11-25T18:44:05.951Z,41.65
2022-11-25T18:46:38.762Z,37.75
2022-11-25T18:49:13.710Z,41.05
2022-11-25T18:51:42.221Z,37.42
2022-11-25T18:54:10.482Z,39.80
2022-11-25T18:56:39.774Z,42.38
2022-11-25T18:59:11.474Z,47.50
2022-11-25T19:01:39.702Z,47.42
2022-11-25T19:04:06.834Z,45.63
2022-11-25T19:06:33.739Z,45.70
2022-11-25T19:12:15.390Z,46.67
2022-11-25T19:14:42.951Z,40.72
2022-11-25T19:17:20.156Z,38.38
2022-11-25T19:22:42.697Z,43.03
2022-11-25T19:25:11.033Z,47.13
2022-11-25T19:27:49.366Z,56.15
2022-11-25T19:33:03.303Z,40.75
2022-11-25T19:35:36.440Z,33.75
2022-11-25T19:38:18.089Z,38.67
2022-11-25T19:40:45.091Z,39.05
2022-11-25T19:43:11.986Z,38.53
2022-11-25T19:45:39.212Z,40.00
2022-11-25T19:48:11.486Z,46.28
2022-11-25T19:50:41.654Z,40.08
2022-11-25T19:53:23.385Z,37.78
2022-11-25T19:55:53.959Z,41.70
2022-11-25T19:58:26.188Z,44.15
2022-11-25T20:00:54.457Z,46.20
2022-11-25T20:03:29.410Z,50.30
2022-11-25T20:05:57.585Z,39.42
2022-11-25T20:08:27.999Z,40.58
2022-11-25T20:10:56.458Z,37.97
2022-11-25T20:13:47.598Z,52.55
2022-11-25T20:16:24.224Z,43.00
2022-11-25T20:21:37.815Z,40.70
2022-11-25T20:30:04.989Z,51.87
2022-11-25T20:32:34.732Z,42.03
2022-11-25T20:35:02.639Z,37.75
2022-11-25T20:37:31.565Z,35.78
2022-11-25T20:42:42.891Z,37.70
2022-11-25T20:50:43.594Z,35.13
2022-11-25T20:53:16.992Z,27.10
2022-11-25T20:55:44.694Z,28.30
2022-11-25T21:01:05.680Z,31.73
2022-11-25T21:06:29.183Z,30.98
2022-11-25T21:29:03.142Z,28.10
2022-11-25T21:31:37.504Z,26.92
2022-11-25T21:36:56.641Z,28.88
2022-11-25T21:42:03.037Z,30.52
2022-11-25T21:44:40.635Z,30.73
2022-11-25T21:50:49.604Z,27.23
2022-11-25T21:53:20.986Z,25.98
2022-11-25T21:58:49.733Z,27.80
2022-11-25T22:01:25.871Z,26.90
2022-11-25T22:03:53.910Z,27.65
2022-11-25T22:06:44.196Z,24.13
2022-11-25T22:11:53.944Z,25.45
2022-11-25T22:14:28.879Z,28.35
2022-11-25T22:17:01.980Z,21.08
2022-11-25T22:19:48.142Z,23.17
2022-11-25T22:22:18.726Z,17.65
2022-11-25T22:24:46.529Z,24.20
2022-11-25T22:27:22.419Z,26.95
2022-11-25T22:29:52.330Z,25.25
2022-11-25T22:32:19.780Z,19.88
2022-11-25T22:34:47.615Z,23.77
2022-11-25T22:37:20.812Z,24.20
2022-11-25T22:39:48.916Z,18.98
2022-11-25T22:42:27.850Z,17.65
2022-11-25T22:44:57.176Z,18.95
2022-11-25T22:47:43.834Z,17.50
2022-11-25T22:50:27.388Z,18.85
2022-11-25T22:52:55.358Z,16.60
2022-11-25T22:55:29.364Z,14.25
2022-11-25T22:57:58.634Z,19.13
2022-11-25T23:00:32.810Z,21.33
2022-11-25T23:03:02.566Z,16.55
2022-11-25T23:05:33.704Z,18.77
2022-11-25T23:08:03.044Z,15.15
2022-11-25T23:10:36.538Z,18.17
2022-11-25T23:13:04.026Z,14.88
2022-11-25T23:15:31.520Z,16.55
2022-11-25T23:18:00.792Z,18.92
2022-11-25T23:20:38.350Z,18.23
2022-11-25T23:23:17.670Z,20.35
2022-11-25T23:25:45.688Z,23.30
2022-11-25T23:28:13.015Z,22.05
2022-11-25T23:31:05.362Z,18.25
2022-11-25T23:36:14.117Z,23.38
2022-11-25T23:38:49.132Z,19.35
2022-11-25T23:41:20.044Z,19.58
2022-11-25T23:43:47.067Z,20.35
2022-11-25T23:46:15.369Z,18.75
2022-11-25T23:51:28.170Z,19.13
2022-11-25T23:53:56.863Z,15.57
2022-11-25T23:56:25.605Z,20.85
2022-11-25T23:58:52.429Z,17.58
